createdAt,value
2019-03-29T00:01:00.779Z,43.44
2019-03-29T00:03:35.622Z,43.47
2019-03-29T00:06:11.870Z,43.36
2019-03-29T00:08:47.746Z,43.41
2019-03-29T00:11:22.742Z,43.46
2019-03-29T00:13:56.683Z,43.63
2019-03-29T00:16:32.737Z,43.44
2019-03-29T00:19:07.673Z,43.48
2019-03-29T00:21:43.751Z,43.57
2019-03-29T00:24:17.706Z,43.53
2019-03-29T00:26:53.752Z,43.45
2019-03-29T00:29:28.011Z,43.33
2019-03-29T00:34:16.506Z,43.58
2019-03-29T00:36:49.816Z,43.48
2019-03-29T00:39:23.338Z,43.48
2019-03-29T00:41:56.445Z,43.47
2019-03-29T00:44:29.532Z,43.42
2019-03-29T00:47:04.076Z,43.38
2019-03-29T00:49:37.884Z,43.38
2019-03-29T00:52:11.362Z,43.44
2019-03-29T00:54:45.318Z,43.47
2019-03-29T00:57:18.853Z,43.43
2019-03-29T00:59:53.000Z,43.47
2019-03-29T01:02:26.445Z,43.47
2019-03-29T01:04:59.815Z,43.46
2019-03-29T01:07:33.329Z,43.55
2019-03-29T01:10:08.338Z,43.54
2019-03-29T01:12:41.851Z,43.53
2019-03-29T01:15:15.806Z,43.55
2019-03-29T01:17:49.411Z,43.48
2019-03-29T01:20:22.933Z,43.51
2019-03-29T01:22:56.411Z,43.54
2019-03-29T01:25:29.494Z,43.52
2019-03-29T01:28:02.640Z,43.55
2019-03-29T01:30:35.991Z,43.61
2019-03-29T01:33:09.336Z,43.61
2019-03-29T01:35:42.500Z,43.58
2019-03-29T01:38:21.599Z,43.47
2019-03-29T01:40:50.898Z,43.53
2019-03-29T01:43:24.359Z,43.53
2019-03-29T01:45:57.446Z,43.51
2019-03-29T01:48:30.812Z,43.56
2019-03-29T01:51:04.320Z,43.50
2019-03-29T01:53:38.006Z,43.51
2019-03-29T01:56:11.618Z,43.43
2019-03-29T01:58:44.903Z,43.44
2019-03-29T02:01:18.864Z,43.44
2019-03-29T02:06:13.609Z,43.37
2019-03-29T02:08:46.922Z,43.35
2019-03-29T02:11:20.836Z,43.35
2019-03-29T02:13:54.459Z,43.54
2019-03-29T02:16:27.902Z,43.64
2019-03-29T02:19:01.351Z,43.52
2019-03-29T02:21:35.414Z,43.59
2019-03-29T02:24:08.856Z,43.49
2019-03-29T02:26:42.391Z,43.47
2019-03-29T02:29:15.877Z,43.50
2019-03-29T02:31:49.772Z,43.41
2019-03-29T02:34:22.122Z,43.41
2019-03-29T02:36:55.557Z,43.41
2019-03-29T02:39:28.919Z,43.42
2019-03-29T02:42:02.853Z,43.42
2019-03-29T02:44:36.801Z,43.32
2019-03-29T02:47:10.396Z,43.44
2019-03-29T02:49:43.906Z,43.31
2019-03-29T02:52:17.448Z,43.38
2019-03-29T02:54:50.939Z,43.42
2019-03-29T02:57:24.850Z,43.46
2019-03-29T02:59:58.337Z,43.39
2019-03-29T03:02:31.823Z,43.36
2019-03-29T03:05:05.536Z,43.43
2019-03-29T03:07:39.317Z,43.43
2019-03-29T03:10:14.886Z,43.43
2019-03-29T03:12:48.399Z,43.42
2019-03-29T03:15:21.580Z,43.56
2019-03-29T03:17:55.021Z,43.48
2019-03-29T03:20:28.861Z,43.39
2019-03-29T03:23:02.877Z,43.43
2019-03-29T03:25:36.746Z,43.34
2019-03-29T03:28:10.485Z,43.39
2019-03-29T03:30:43.880Z,43.52
2019-03-29T03:33:17.414Z,43.44
2019-03-29T03:35:50.827Z,43.49
2019-03-29T03:38:24.457Z,43.63
2019-03-29T03:40:57.877Z,43.61
2019-03-29T03:43:31.486Z,43.79
2019-03-29T03:46:04.899Z,43.87
2019-03-29T03:48:38.918Z,43.87
2019-03-29T03:51:12.387Z,43.51
2019-03-29T03:53:45.997Z,43.36
2019-03-29T03:56:20.285Z,43.30
2019-03-29T03:58:54.327Z,43.28
2019-03-29T04:01:27.544Z,43.32
2019-03-29T04:04:00.921Z,43.36
2019-03-29T04:06:34.627Z,43.31
2019-03-29T04:09:09.499Z,43.44
2019-03-29T04:11:42.882Z,43.44
2019-03-29T04:14:16.329Z,43.46
2019-03-29T04:16:49.825Z,43.44
2019-03-29T04:19:23.284Z,43.37
2019-03-29T04:21:56.517Z,43.39
2019-03-29T04:24:30.383Z,43.41
2019-03-29T04:27:03.756Z,43.41
2019-03-29T04:29:35.757Z,43.48
2019-03-29T04:32:09.333Z,43.46
2019-03-29T04:34:42.890Z,43.45
2019-03-29T04:37:16.559Z,43.53
2019-03-29T04:40:06.320Z,43.62
2019-03-29T04:42:25.394Z,43.54
2019-03-29T04:44:59.990Z,43.52
2019-03-29T04:47:34.041Z,43.51
2019-03-29T04:50:08.387Z,43.40
2019-03-29T04:52:42.040Z,43.39
2019-03-29T04:55:16.022Z,43.43
2019-03-29T04:57:49.814Z,43.62
2019-03-29T05:00:26.813Z,43.57
2019-03-29T05:03:00.012Z,43.86
2019-03-29T05:05:33.490Z,43.68
2019-03-29T05:08:07.301Z,43.68
2019-03-29T05:10:41.413Z,43.61
2019-03-29T05:13:14.664Z,43.79
2019-03-29T05:15:48.327Z,43.62
2019-03-29T05:18:21.821Z,43.62
2019-03-29T05:20:55.336Z,43.81
2019-03-29T05:23:28.414Z,43.64
2019-03-29T05:26:02.337Z,43.60
2019-03-29T05:28:35.520Z,43.62
2019-03-29T05:31:09.375Z,43.61
2019-03-29T05:33:43.324Z,43.67
2019-03-29T05:36:16.449Z,43.62
2019-03-29T05:38:49.533Z,43.69
2019-03-29T05:41:23.623Z,43.55
2019-03-29T05:43:57.075Z,43.51
2019-03-29T05:46:30.793Z,43.51
2019-03-29T05:49:04.325Z,43.60
2019-03-29T05:51:38.035Z,43.92
2019-03-29T05:54:11.578Z,43.75
2019-03-29T05:56:44.317Z,44.01
2019-03-29T05:59:18.379Z,44.21
2019-03-29T06:01:54.391Z,44.03
2019-03-29T06:04:37.964Z,43.73
2019-03-29T06:07:08.848Z,43.56
2019-03-29T06:09:42.572Z,43.81
2019-03-29T06:12:16.107Z,43.80
2019-03-29T06:14:50.095Z,43.80
2019-03-29T06:17:23.847Z,43.51
2019-03-29T06:19:57.567Z,43.57
2019-03-29T06:22:31.020Z,43.53
2019-03-29T06:25:04.494Z,43.53
2019-03-29T06:27:37.653Z,43.39
2019-03-29T06:30:09.964Z,43.50
2019-03-29T06:32:43.780Z,43.44
2019-03-29T06:35:17.322Z,43.54
2019-03-29T06:37:50.556Z,43.46
2019-03-29T06:40:29.304Z,43.44
2019-03-29T06:43:02.806Z,43.37
2019-03-29T06:45:47.309Z,43.26
2019-03-29T06:48:11.426Z,43.15
2019-03-29T06:50:44.681Z,43.09
2019-03-29T06:53:16.774Z,43.11
2019-03-29T06:55:48.892Z,43.15
2019-03-29T06:58:22.453Z,43.17
2019-03-29T07:00:56.376Z,43.21
2019-03-29T07:03:30.147Z,43.09
2019-03-29T07:06:03.880Z,43.23
2019-03-29T07:08:37.381Z,43.20
2019-03-29T07:11:17.555Z,43.07
2019-03-29T07:13:57.519Z,43.14
2019-03-29T07:16:22.056Z,43.23
2019-03-29T07:18:55.575Z,43.21
2019-03-29T07:21:29.092Z,42.89
2019-03-29T07:24:03.330Z,42.89
2019-03-29T07:26:37.018Z,42.86
2019-03-29T07:29:10.427Z,42.86
2019-03-29T07:31:43.583Z,42.86
2019-03-29T07:34:17.516Z,42.89
2019-03-29T07:36:51.630Z,42.89
2019-03-29T07:39:25.321Z,42.76
2019-03-29T07:41:58.624Z,42.76
2019-03-29T07:44:32.535Z,42.67
2019-03-29T07:47:06.090Z,42.67
2019-03-29T07:49:39.427Z,42.63
2019-03-29T07:52:13.086Z,42.64
2019-03-29T07:54:46.733Z,42.63
2019-03-29T07:57:18.766Z,42.64
2019-03-29T07:59:50.904Z,42.49
2019-03-29T08:02:24.461Z,42.41
2019-03-29T08:04:58.133Z,42.48
2019-03-29T08:07:33.818Z,42.42
2019-03-29T08:10:18.886Z,42.54
2019-03-29T08:12:49.836Z,42.40
2019-03-29T08:15:24.471Z,42.38
2019-03-29T08:18:01.386Z,42.29
2019-03-29T08:20:40.593Z,42.31
2019-03-29T08:23:12.634Z,42.29
2019-03-29T08:25:47.318Z,42.26
2019-03-29T08:28:22.707Z,42.35
2019-03-29T08:30:55.632Z,42.19
2019-03-29T08:33:29.536Z,42.19
2019-03-29T08:36:06.141Z,42.27
2019-03-29T08:38:40.531Z,42.27
2019-03-29T08:41:13.400Z,42.20
2019-03-29T08:43:47.321Z,42.07
2019-03-29T08:46:27.315Z,42.00
2019-03-29T08:49:17.468Z,41.94
2019-03-29T08:51:51.461Z,42.04
2019-03-29T08:54:25.008Z,41.99
2019-03-29T08:56:59.329Z,42.00
2019-03-29T08:59:33.318Z,41.93
2019-03-29T09:02:09.279Z,41.86
2019-03-29T09:04:48.883Z,41.85
2019-03-29T09:07:23.291Z,41.80
2019-03-29T09:09:56.894Z,41.77
2019-03-29T09:12:30.400Z,41.82
2019-03-29T09:15:04.283Z,41.73
2019-03-29T09:17:37.908Z,41.85
2019-03-29T09:20:11.373Z,41.78
2019-03-29T09:22:44.935Z,41.73
2019-03-29T09:25:21.128Z,41.79
2019-03-29T09:28:06.600Z,41.75
2019-03-29T09:31:30.282Z,41.62
2019-03-29T09:34:20.758Z,41.78
2019-03-29T09:37:15.304Z,41.57
2019-03-29T09:39:57.384Z,41.58
2019-03-29T09:43:15.097Z,41.64
2019-03-29T09:46:20.044Z,41.58
2019-03-29T09:53:27.820Z,41.54
2019-03-29T09:57:09.937Z,41.27
2019-03-29T09:59:44.461Z,41.45
2019-03-29T10:02:19.406Z,41.52
2019-03-29T10:04:52.922Z,41.55
2019-03-29T10:07:26.373Z,41.59
2019-03-29T10:10:00.557Z,41.31
2019-03-29T10:12:43.255Z,41.41
2019-03-29T10:15:15.540Z,41.41
2019-03-29T10:17:54.702Z,41.40
2019-03-29T10:20:28.966Z,41.40
2019-03-29T10:23:06.779Z,41.11
2019-03-29T10:25:39.276Z,40.96
2019-03-29T10:28:13.098Z,41.24
2019-03-29T10:30:48.125Z,40.88
2019-03-29T10:33:21.821Z,40.84
2019-03-29T10:35:58.271Z,40.30
2019-03-29T10:38:33.514Z,41.03
2019-03-29T10:41:07.703Z,40.81
2019-03-29T10:43:41.959Z,41.00
2019-03-29T10:46:19.363Z,40.55
2019-03-29T10:48:59.521Z,40.80
2019-03-29T10:51:33.373Z,40.60
2019-03-29T10:54:06.659Z,40.60
2019-03-29T10:56:38.883Z,40.72
2019-03-29T10:59:26.341Z,40.49
2019-03-29T11:01:48.347Z,40.33
2019-03-29T11:04:21.589Z,40.50
2019-03-29T11:06:55.097Z,40.49
2019-03-29T11:09:28.636Z,40.49
2019-03-29T11:12:02.336Z,40.74
2019-03-29T11:14:36.319Z,40.74
2019-03-29T11:17:11.355Z,40.56
2019-03-29T11:19:46.054Z,40.20
2019-03-29T11:22:19.585Z,40.34
2019-03-29T11:24:53.854Z,40.30
2019-03-29T11:27:27.391Z,40.30
2019-03-29T11:30:00.913Z,40.34
2019-03-29T11:32:37.605Z,40.29
2019-03-29T11:35:11.110Z,39.83
2019-03-29T11:37:44.669Z,39.83
2019-03-29T11:40:18.338Z,40.25
2019-03-29T11:42:52.327Z,40.25
2019-03-29T11:45:26.335Z,39.83
2019-03-29T11:48:08.606Z,40.32
2019-03-29T11:50:35.100Z,39.86
2019-03-29T11:53:08.827Z,39.86
2019-03-29T11:55:42.274Z,39.74
2019-03-29T11:58:16.053Z,40.16
2019-03-29T12:00:49.925Z,39.15
2019-03-29T12:03:54.269Z,38.32
2019-03-29T12:06:35.952Z,40.10
2019-03-29T12:09:11.318Z,39.54
2019-03-29T12:11:45.097Z,39.86
2019-03-29T12:14:22.395Z,38.19
2019-03-29T12:16:55.312Z,39.90
2019-03-29T12:19:28.077Z,39.70
2019-03-29T12:22:01.341Z,39.17
2019-03-29T12:24:34.759Z,39.90
2019-03-29T12:27:07.791Z,39.59
2019-03-29T12:29:40.806Z,40.10
2019-03-29T12:32:13.819Z,40.09
2019-03-29T12:34:47.327Z,39.90
2019-03-29T12:37:20.066Z,40.23
2019-03-29T12:39:53.069Z,39.97
2019-03-29T12:42:25.993Z,40.44
2019-03-29T12:44:58.884Z,40.28
2019-03-29T12:47:31.853Z,39.91
2019-03-29T12:50:04.780Z,39.82
2019-03-29T12:52:36.648Z,39.98
2019-03-29T12:55:09.772Z,40.16
2019-03-29T12:57:42.754Z,40.16
2019-03-29T13:00:14.638Z,40.41
2019-03-29T13:02:47.363Z,40.37
2019-03-29T13:05:20.010Z,40.37
2019-03-29T13:07:53.376Z,40.53
2019-03-29T13:10:25.636Z,40.62
2019-03-29T13:13:01.882Z,40.16
2019-03-29T13:15:36.845Z,40.16
2019-03-29T13:18:12.328Z,40.30
2019-03-29T13:20:45.312Z,40.02
2019-03-29T13:23:18.329Z,40.58
2019-03-29T13:25:51.648Z,40.23
2019-03-29T13:28:24.771Z,40.10
2019-03-29T13:30:56.763Z,40.10
2019-03-29T13:33:37.074Z,40.60
2019-03-29T13:36:10.376Z,40.58
2019-03-29T13:38:43.367Z,40.63
2019-03-29T13:41:16.264Z,40.35
2019-03-29T13:43:48.996Z,40.56
2019-03-29T13:46:21.862Z,40.62
2019-03-29T13:48:54.782Z,40.41
2019-03-29T13:51:26.597Z,40.62
2019-03-29T13:53:59.574Z,40.66
2019-03-29T13:56:32.307Z,40.63
2019-03-29T13:59:05.070Z,40.63
2019-03-29T14:01:38.023Z,40.41
2019-03-29T14:04:11.193Z,40.50
2019-03-29T14:06:44.066Z,39.84
2019-03-29T14:09:16.889Z,40.69
2019-03-29T14:11:50.309Z,40.50
2019-03-29T14:14:23.058Z,40.45
2019-03-29T14:16:55.914Z,40.60
2019-03-29T14:19:28.841Z,40.66
2019-03-29T14:22:01.765Z,40.67
2019-03-29T14:24:33.633Z,40.58
2019-03-29T14:27:06.352Z,40.57
2019-03-29T14:29:39.849Z,40.57
2019-03-29T14:32:13.358Z,40.60
2019-03-29T14:34:46.408Z,40.70
2019-03-29T14:37:19.369Z,40.62
2019-03-29T14:39:52.045Z,40.47
2019-03-29T14:42:24.908Z,40.75
2019-03-29T14:44:58.381Z,40.74
2019-03-29T14:47:42.658Z,40.67
2019-03-29T14:50:04.651Z,40.29
2019-03-29T14:52:37.230Z,40.50
2019-03-29T14:55:13.140Z,40.50
2019-03-29T14:57:45.914Z,40.25
2019-03-29T15:00:40.311Z,39.41
2019-03-29T15:03:14.138Z,39.37
2019-03-29T15:05:48.354Z,40.15
2019-03-29T15:08:22.436Z,39.75
2019-03-29T15:10:55.310Z,39.31
2019-03-29T15:13:29.801Z,39.13
2019-03-29T15:16:02.782Z,39.12
2019-03-29T15:18:36.413Z,38.40
2019-03-29T15:21:10.529Z,38.17
2019-03-29T15:23:42.637Z,37.49
2019-03-29T15:26:15.772Z,37.52
2019-03-29T15:28:47.657Z,37.52
2019-03-29T15:31:19.654Z,36.96
2019-03-29T15:33:51.617Z,36.91
2019-03-29T15:36:25.536Z,35.88
2019-03-29T15:41:29.835Z,37.35
2019-03-29T15:44:04.794Z,37.35
2019-03-29T15:46:37.801Z,35.12
2019-03-29T15:49:10.997Z,35.62
2019-03-29T15:51:44.358Z,35.43
2019-03-29T15:54:17.777Z,36.79
2019-03-29T15:56:50.489Z,36.15
2019-03-29T15:59:24.469Z,36.64
2019-03-29T16:01:57.310Z,37.17
2019-03-29T16:04:30.747Z,36.97
2019-03-29T16:07:02.539Z,37.31
2019-03-29T16:09:35.026Z,36.30
2019-03-29T16:12:07.977Z,36.55
2019-03-29T16:14:40.841Z,37.50
2019-03-29T16:17:13.982Z,37.99
2019-03-29T16:19:46.830Z,38.15
2019-03-29T16:22:29.251Z,37.59
2019-03-29T16:25:02.201Z,38.17
2019-03-29T16:27:35.308Z,37.94
2019-03-29T16:30:09.347Z,37.97
2019-03-29T16:32:47.219Z,38.10
2019-03-29T16:35:21.631Z,37.96
2019-03-29T16:37:57.406Z,38.04
2019-03-29T16:40:31.190Z,38.47
2019-03-29T16:43:04.081Z,38.47
2019-03-29T16:45:47.236Z,38.73
2019-03-29T16:48:17.462Z,38.72
2019-03-29T16:50:55.525Z,38.55
2019-03-29T16:53:33.512Z,38.46
2019-03-29T16:56:06.683Z,38.57
2019-03-29T16:58:40.343Z,37.88
2019-03-29T17:01:13.355Z,37.88
2019-03-29T17:03:46.299Z,37.84
2019-03-29T17:06:19.291Z,37.97
2019-03-29T17:08:52.255Z,37.71
2019-03-29T17:11:25.056Z,37.55
2019-03-29T17:13:57.895Z,37.88
2019-03-29T17:16:31.302Z,37.25
2019-03-29T17:19:04.033Z,37.46
2019-03-29T17:21:36.982Z,37.34
2019-03-29T17:24:10.049Z,37.70
2019-03-29T17:26:43.494Z,37.90
2019-03-29T17:29:16.304Z,36.97
2019-03-29T17:31:49.062Z,37.42
2019-03-29T17:34:22.121Z,37.48
2019-03-29T17:36:54.853Z,37.19
2019-03-29T17:39:27.779Z,37.34
2019-03-29T17:42:00.778Z,37.36
2019-03-29T17:44:34.059Z,37.18
2019-03-29T17:47:06.977Z,37.35
2019-03-29T17:49:40.294Z,37.65
2019-03-29T17:52:13.061Z,37.94
2019-03-29T17:54:46.099Z,37.46
2019-03-29T17:57:19.297Z,37.87
2019-03-29T17:59:52.307Z,37.66
2019-03-29T18:02:24.973Z,38.68
2019-03-29T18:04:57.906Z,37.74
2019-03-29T18:07:30.866Z,37.68
2019-03-29T18:10:03.834Z,38.10
2019-03-29T18:12:36.982Z,37.75
2019-03-29T18:15:10.340Z,37.99
2019-03-29T18:17:43.301Z,37.75
2019-03-29T18:20:16.765Z,38.07
2019-03-29T18:22:49.284Z,37.68
2019-03-29T18:25:22.366Z,37.55
2019-03-29T18:27:54.973Z,37.07
2019-03-29T18:30:43.398Z,37.54
2019-03-29T18:33:16.066Z,37.06
2019-03-29T18:35:48.950Z,37.17
2019-03-29T18:38:21.907Z,37.04
2019-03-29T18:40:54.818Z,37.08
2019-03-29T18:43:27.876Z,37.37
2019-03-29T18:46:00.873Z,37.27
2019-03-29T18:48:34.039Z,37.57
2019-03-29T18:51:07.301Z,37.58
2019-03-29T18:53:40.302Z,37.68
2019-03-29T18:56:13.353Z,38.20
2019-03-29T18:58:46.266Z,37.83
2019-03-29T19:01:19.053Z,38.49
2019-03-29T19:03:51.907Z,38.48
2019-03-29T19:06:25.005Z,37.95
2019-03-29T19:08:58.010Z,38.00
2019-03-29T19:11:30.816Z,38.30
2019-03-29T19:14:03.796Z,37.96
2019-03-29T19:16:35.616Z,38.05
2019-03-29T19:19:10.245Z,38.04
2019-03-29T19:21:43.005Z,38.04
2019-03-29T19:24:15.884Z,38.11
2019-03-29T19:26:48.869Z,38.11
2019-03-29T19:29:21.845Z,37.75
2019-03-29T19:31:56.151Z,37.67
2019-03-29T19:34:30.805Z,37.33
2019-03-29T19:37:03.785Z,37.50
2019-03-29T19:39:36.090Z,37.03
2019-03-29T19:42:16.633Z,37.36
2019-03-29T19:44:49.059Z,37.33
2019-03-29T19:47:33.396Z,37.36
2019-03-29T19:50:07.510Z,37.10
2019-03-29T19:52:42.720Z,37.54
2019-03-29T19:55:15.279Z,37.75
2019-03-29T19:57:50.990Z,37.75
2019-03-29T20:00:50.112Z,37.73
2019-03-29T20:03:23.876Z,37.68
2019-03-29T20:05:57.394Z,37.53
2019-03-29T20:08:31.525Z,37.88
2019-03-29T20:11:05.065Z,38.45
2019-03-29T20:13:38.860Z,38.45
2019-03-29T20:16:13.119Z,38.96
2019-03-29T20:18:47.318Z,38.84
2019-03-29T20:21:20.847Z,39.60
2019-03-29T20:23:54.577Z,39.68
2019-03-29T20:26:28.367Z,41.39
2019-03-29T20:29:01.851Z,41.39
2019-03-29T20:31:42.626Z,41.16
2019-03-29T20:34:16.325Z,40.92
2019-03-29T20:36:50.105Z,40.92
2019-03-29T20:39:24.339Z,41.11
2019-03-29T20:41:57.633Z,42.51
2019-03-29T20:44:31.526Z,42.17
2019-03-29T20:47:05.470Z,42.17
2019-03-29T20:49:39.552Z,41.91
2019-03-29T20:52:13.094Z,42.43
2019-03-29T20:54:46.450Z,42.43
2019-03-29T20:57:20.323Z,41.17
2019-03-29T20:59:54.782Z,42.21
2019-03-29T21:02:29.373Z,42.47
2019-03-29T21:05:04.668Z,42.80
2019-03-29T21:07:38.394Z,42.68
2019-03-29T21:10:17.649Z,42.76
2019-03-29T21:12:51.425Z,42.55
2019-03-29T21:15:29.450Z,42.55
2019-03-29T21:18:07.263Z,42.80
2019-03-29T21:20:43.220Z,42.68
2019-03-29T21:23:16.454Z,42.96
2019-03-29T21:25:51.411Z,42.86
2019-03-29T21:28:28.225Z,42.70
2019-03-29T21:31:03.767Z,42.86
2019-03-29T21:33:42.745Z,42.83
2019-03-29T21:36:23.498Z,42.91
2019-03-29T21:39:09.033Z,42.90
2019-03-29T21:41:45.828Z,42.61
2019-03-29T21:44:21.843Z,42.83
2019-03-29T21:47:00.499Z,42.77
2019-03-29T21:49:35.731Z,42.58
2019-03-29T21:52:27.546Z,42.58
2019-03-29T21:55:01.037Z,43.08
2019-03-29T21:57:34.501Z,42.83
2019-03-29T22:00:14.647Z,43.41
2019-03-29T22:02:49.402Z,43.23
2019-03-29T22:05:27.933Z,42.94
2019-03-29T22:08:02.654Z,43.08
2019-03-29T22:10:35.651Z,43.30
2019-03-29T22:13:10.693Z,43.54
2019-03-29T22:15:46.693Z,43.13
2019-03-29T22:18:21.737Z,43.07
2019-03-29T22:20:56.783Z,43.28
2019-03-29T22:23:34.811Z,43.06
2019-03-29T22:26:10.685Z,43.45
2019-03-29T22:28:48.830Z,43.02
2019-03-29T22:31:26.770Z,43.14
2019-03-29T22:34:03.892Z,43.27
2019-03-29T22:36:42.208Z,43.08
2019-03-29T22:39:21.371Z,43.08
2019-03-29T22:41:57.795Z,43.25
2019-03-29T22:44:33.781Z,43.28
2019-03-29T22:47:10.739Z,43.01
2019-03-29T22:49:44.703Z,43.18
2019-03-29T22:52:18.980Z,43.08
2019-03-29T22:54:55.697Z,43.08
2019-03-29T22:57:29.683Z,43.07
2019-03-29T23:00:04.686Z,43.24
2019-03-29T23:02:40.686Z,43.30
2019-03-29T23:05:20.896Z,43.35
2019-03-29T23:07:57.819Z,43.30
2019-03-29T23:10:34.758Z,43.21
2019-03-29T23:13:09.033Z,42.69
2019-03-29T23:15:45.760Z,43.13
2019-03-29T23:18:22.931Z,43.17
2019-03-29T23:20:58.810Z,43.35
2019-03-29T23:23:36.012Z,42.65
2019-03-29T23:26:15.264Z,43.11
2019-03-29T23:28:54.196Z,43.11
2019-03-29T23:31:30.741Z,43.25
2019-03-29T23:34:04.684Z,43.31
2019-03-29T23:36:40.777Z,43.31
2019-03-29T23:39:16.821Z,43.28
2019-03-29T23:41:52.734Z,43.32
2019-03-29T23:44:27.667Z,43.27
2019-03-29T23:47:02.892Z,43.33
2019-03-29T23:49:38.715Z,43.01
2019-03-29T23:52:14.757Z,42.98
2019-03-29T23:54:48.697Z,43.33
2019-03-29T23:57:23.855Z,43.35
2019-03-29T23:59:58.891Z,43.29
